Time;durP1;ratioP1;P1;durP2;ratioP2;P2;SDS_P1;SDS_P2;PMS_P1;PMS_P2;Temp;Humidity;BMP_temperature;BMP_pressure;BME280_temperature;BME280_humidity;BME280_pressure;Samples;Min_cycle;Max_cycle;Signal;HPM_P1;HPM_P2
2021/01/25 00:02:08;;;;;;;1.65;0.70;;;6.50;64.90;;;;;;2573139;52;21026;-66
2021/01/25 00:04:35;;;;;;;2.12;0.82;;;6.50;65.00;;;;;;2352085;53;20970;-66
2021/01/25 00:07:02;;;;;;;2.90;1.15;;;6.50;65.00;;;;;;2592227;52;20944;-66
2021/01/25 00:09:28;;;;;;;1.67;0.70;;;6.50;65.00;;;;;;2347351;54;21348;-66
2021/01/25 00:11:54;;;;;;;2.05;0.80;;;6.50;64.90;;;;;;2598258;52;20928;-66
2021/01/25 00:14:21;;;;;;;1.70;0.60;;;6.50;65.00;;;;;;2601437;52;20900;-66
2021/01/25 00:16:49;;;;;;;3.50;1.05;;;6.60;65.10;;;;;;2591100;52;20999;-66
2021/01/25 00:19:16;;;;;;;2.00;0.80;;;6.60;65.10;;;;;;2594766;52;21018;-66
2021/01/25 00:21:43;;;;;;;1.95;0.62;;;6.60;65.20;;;;;;2354404;53;21006;-66
2021/01/25 00:24:13;;;;;;;1.27;0.52;;;6.60;65.30;;;;;;2325221;54;20954;-65
2021/01/25 00:26:39;;;;;;;2.17;0.70;;;6.60;65.40;;;;;;2346183;54;21018;-66
2021/01/25 00:29:06;;;;;;;2.20;0.70;;;6.60;65.40;;;;;;2361610;53;21059;-65
2021/01/25 00:31:33;;;;;;;2.37;0.80;;;6.60;66.10;;;;;;2598960;52;21066;-64
2021/01/25 00:33:59;;;;;;;2.85;0.95;;;6.70;65.50;;;;;;2613984;52;21486;-65
2021/01/25 00:36:25;;;;;;;4.32;1.10;;;6.70;65.50;;;;;;2620454;52;20978;-64
2021/01/25 00:38:52;;;;;;;2.67;1.00;;;6.70;65.50;;;;;;2601955;52;21036;-65
2021/01/25 00:41:18;;;;;;;3.17;1.15;;;6.80;65.60;;;;;;2352850;53;21865;-65
2021/01/25 00:43:45;;;;;;;2.67;1.10;;;6.70;65.40;;;;;;2588704;52;21702;-65
2021/01/25 00:46:12;;;;;;;3.75;1.27;;;6.70;65.40;;;;;;2591134;52;21568;-65
2021/01/25 00:48:41;;;;;;;2.20;0.90;;;6.70;65.40;;;;;;2352985;53;21071;-65
2021/01/25 00:51:07;;;;;;;3.12;1.10;;;6.70;65.40;;;;;;2357633;53;20973;-65
2021/01/25 00:53:33;;;;;;;3.83;1.35;;;6.70;65.50;;;;;;2339335;53;21511;-65
2021/01/25 00:56:00;;;;;;;3.00;1.08;;;6.70;65.60;;;;;;2591210;52;21361;-65
2021/01/25 00:58:26;;;;;;;3.00;1.30;;;6.70;65.60;;;;;;2598398;52;20963;-65
2021/01/25 01:00:53;;;;;;;3.28;1.30;;;6.60;65.40;;;;;;2601701;52;21035;-65
2021/01/25 01:03:19;;;;;;;3.70;1.35;;;6.60;65.40;;;;;;2601845;52;20917;-65
2021/01/25 01:05:45;;;;;;;2.80;1.23;;;6.60;65.50;;;;;;2600729;52;21861;-65
2021/01/25 01:08:11;;;;;;;4.03;1.60;;;6.60;65.50;;;;;;2577537;52;20934;-65
2021/01/25 01:10:38;;;;;;;4.07;1.37;;;6.60;65.50;;;;;;2333446;54;21610;-65
2021/01/25 01:13:05;;;;;;;2.47;1.12;;;6.60;65.50;;;;;;2599488;52;20942;-65
2021/01/25 01:15:31;;;;;;;3.87;1.60;;;6.60;65.50;;;;;;2349249;54;21481;-65
2021/01/25 01:17:57;;;;;;;3.15;1.30;;;6.60;65.50;;;;;;2346525;53;21607;-65
2021/01/25 01:20:24;;;;;;;3.03;1.20;;;6.50;65.50;;;;;;2605129;52;21721;-65
2021/01/25 01:22:50;;;;;;;3.55;1.27;;;6.50;65.50;;;;;;2588547;52;20935;-65
2021/01/25 01:25:17;;;;;;;2.65;1.10;;;6.50;65.50;;;;;;2591045;52;21304;-65
2021/01/25 01:27:43;;;;;;;2.75;1.20;;;6.50;65.60;;;;;;2597918;52;21019;-66
2021/01/25 01:30:11;;;;;;;3.08;1.33;;;6.50;65.60;;;;;;2588380;52;20964;-66
2021/01/25 01:32:40;;;;;;;3.42;1.23;;;6.50;65.50;;;;;;2352388;53;21023;-66
2021/01/25 01:35:07;;;;;;;2.90;1.20;;;6.40;65.50;;;;;;2600081;52;21034;-67
2021/01/25 01:37:33;;;;;;;3.55;1.70;;;6.40;65.40;;;;;;2615431;52;20943;-66
2021/01/25 01:40:01;;;;;;;2.90;1.40;;;6.40;65.10;;;;;;2352472;53;20965;-66
2021/01/25 01:42:29;;;;;;;2.92;1.50;;;6.30;64.90;;;;;;2602654;52;20936;-66
2021/01/25 01:44:56;;;;;;;4.15;1.48;;;6.30;65.20;;;;;;2600270;52;21031;-66
2021/01/25 01:47:24;;;;;;;2.97;1.20;;;6.20;65.10;;;;;;2595440;52;20938;-66
2021/01/25 01:49:51;;;;;;;4.15;1.40;;;6.20;65.30;;;;;;2354491;54;21019;-66
2021/01/25 01:52:18;;;;;;;2.90;1.33;;;6.20;65.50;;;;;;2580523;52;21055;-66
2021/01/25 01:54:44;;;;;;;3.62;1.50;;;6.10;65.50;;;;;;2585148;52;20983;-66
2021/01/25 01:57:10;;;;;;;3.45;1.12;;;6.10;65.50;;;;;;2587453;52;21007;-66
2021/01/25 01:59:37;;;;;;;4.55;1.27;;;6.10;65.80;;;;;;2595088;52;20999;-66
2021/01/25 02:02:03;;;;;;;3.22;1.37;;;6.10;66.00;;;;;;2620265;52;20926;-66
2021/01/25 02:04:33;;;;;;;3.10;1.42;;;6.00;66.00;;;;;;2604157;52;20947;-65
2021/01/25 02:07:02;;;;;;;2.90;1.30;;;6.00;66.10;;;;;;2593902;52;21071;-67
2021/01/25 02:09:28;;;;;;;2.92;1.30;;;6.00;66.10;;;;;;2582353;52;20967;-66
2021/01/25 02:11:54;;;;;;;3.45;1.08;;;6.00;66.40;;;;;;2542565;53;21488;-66
2021/01/25 02:14:20;;;;;;;2.75;1.20;;;6.00;66.50;;;;;;2527597;53;21058;-66
2021/01/25 02:16:47;;;;;;;3.08;1.23;;;5.90;66.50;;;;;;2560437;53;21063;-66
2021/01/25 02:19:20;;;;;;;2.42;1.10;;;6.00;66.60;;;;;;2568657;53;20955;-66
2021/01/25 02:23:31;;;;;;;2.87;1.00;;;6.00;66.40;;;;;;2584910;53;20972;-65
2021/01/25 02:26:34;;;;;;;2.95;1.27;;;5.90;65.50;;;;;;2569636;53;21281;-66
2021/01/25 02:29:03;;;;;;;;;;;5.90;65.10;;;;;;2590477;52;20996;-65
2021/01/25 02:31:31;;;;;;;3.30;1.40;;;5.80;64.80;;;;;;2321898;53;20100;-65
2021/01/25 02:34:00;;;;;;;3.50;1.20;;;5.80;64.80;;;;;;2560836;53;20927;-65
2021/01/25 02:36:26;;;;;;;2.30;1.02;;;5.70;64.70;;;;;;2582085;53;20942;-65
2021/01/25 02:38:52;;;;;;;3.17;1.50;;;5.60;64.70;;;;;;2588333;52;20904;-65
2021/01/25 02:41:24;;;;;;;3.03;1.48;;;5.60;64.70;;;;;;2344939;54;20972;-65
2021/01/25 02:43:51;;;;;;;1.75;0.90;;;5.50;64.80;;;;;;2598509;52;20941;-66
2021/01/25 02:46:18;;;;;;;3.12;1.30;;;5.40;64.80;;;;;;2601725;52;21018;-65
2021/01/25 02:48:45;;;;;;;2.60;1.17;;;5.40;65.00;;;;;;2616559;52;21382;-65
2021/01/25 02:51:12;;;;;;;3.25;1.30;;;5.30;65.00;;;;;;2594413;52;21759;-65
2021/01/25 02:53:39;;;;;;;2.33;0.90;;;5.30;65.10;;;;;;2590519;52;20979;-65
2021/01/25 02:56:06;;;;;;;3.33;1.10;;;5.20;65.20;;;;;;2358639;54;20946;-66
2021/01/25 02:58:33;;;;;;;2.47;1.10;;;5.20;65.40;;;;;;2342425;54;20943;-66
2021/01/25 03:00:59;;;;;;;3.25;1.10;;;5.20;65.50;;;;;;2351267;53;21027;-66
2021/01/25 03:03:26;;;;;;;2.95;1.10;;;5.10;65.50;;;;;;2603344;52;20954;-66
2021/01/25 03:05:54;;;;;;;2.25;1.00;;;5.10;65.70;;;;;;2589027;52;20995;-66
2021/01/25 03:08:21;;;;;;;3.15;1.20;;;5.10;66.00;;;;;;2349510;53;20963;-66
2021/01/25 03:10:47;;;;;;;3.20;1.50;;;5.00;66.10;;;;;;2586426;52;20968;-66
2021/01/25 03:13:13;;;;;;;3.12;1.58;;;5.00;66.30;;;;;;2611601;52;20971;-66
2021/01/25 03:15:40;;;;;;;5.25;2.10;;;5.00;66.60;;;;;;2589006;52;21034;-66
2021/01/25 03:18:07;;;;;;;3.75;2.03;;;5.00;66.70;;;;;;2354669;53;20977;-65
2021/01/25 03:20:34;;;;;;;3.15;1.40;;;5.00;66.90;;;;;;2591441;52;20995;-66
2021/01/25 03:23:01;;;;;;;3.05;1.35;;;5.00;67.10;;;;;;2591605;52;20984;-66
2021/01/25 03:25:27;;;;;;;2.40;1.08;;;5.00;67.20;;;;;;2353107;53;21471;-66
2021/01/25 03:27:53;;;;;;;3.35;1.40;;;5.00;67.40;;;;;;2603079;52;21006;-66
2021/01/25 03:30:20;;;;;;;2.95;1.48;;;4.90;67.30;;;;;;2592243;52;20987;-66
2021/01/25 03:32:48;;;;;;;3.37;1.60;;;5.00;67.60;;;;;;2588355;52;20919;-66
2021/01/25 03:35:16;;;;;;;2.87;1.37;;;4.80;67.50;;;;;;2361360;53;20955;-66
2021/01/25 03:37:42;;;;;;;3.20;1.40;;;5.00;67.80;;;;;;2588577;52;20959;-66
2021/01/25 03:40:12;;;;;;;2.70;1.40;;;5.00;67.90;;;;;;2602456;52;20937;-66
2021/01/25 03:42:38;;;;;;;4.53;1.70;;;5.00;68.00;;;;;;2599645;52;20916;-66
2021/01/25 03:45:07;;;;;;;3.62;2.10;;;5.00;68.10;;;;;;2581182;52;21031;-66
2021/01/25 03:47:33;;;;;;;3.85;2.03;;;5.00;68.20;;;;;;2612257;52;20952;-66
2021/01/25 03:50:00;;;;;;;3.15;1.62;;;5.00;68.30;;;;;;2367552;54;21089;-66
2021/01/25 03:52:28;;;;;;;3.90;2.30;;;5.00;68.40;;;;;;2357224;54;21209;-66
2021/01/25 03:54:54;;;;;;;3.80;1.92;;;5.00;68.50;;;;;;2582489;52;20946;-66
2021/01/25 03:57:21;;;;;;;4.37;2.30;;;5.00;68.60;;;;;;2351970;53;20931;-66
2021/01/25 03:59:49;;;;;;;3.75;2.20;;;5.10;68.90;;;;;;2593436;52;21046;-66
2021/01/25 04:02:16;;;;;;;5.22;2.53;;;5.10;68.90;;;;;;2357476;53;21414;-66
2021/01/25 04:04:45;;;;;;;4.12;2.22;;;5.00;68.90;;;;;;2588712;52;21562;-66
2021/01/25 04:07:12;;;;;;;3.58;2.17;;;5.10;69.10;;;;;;2610614;52;21688;-66
2021/01/25 04:09:39;;;;;;;4.65;2.42;;;5.10;69.20;;;;;;2603690;52;21614;-66
2021/01/25 04:12:06;;;;;;;4.03;2.20;;;5.10;69.20;;;;;;2372607;53;21485;-66
2021/01/25 04:14:32;;;;;;;4.93;2.70;;;5.10;69.20;;;;;;2352254;53;20934;-66
2021/01/25 04:16:59;;;;;;;4.25;2.40;;;5.10;69.30;;;;;;2585898;52;20957;-66
2021/01/25 04:19:27;;;;;;;4.95;2.60;;;5.10;69.30;;;;;;2353529;53;21033;-66
2021/01/25 04:21:53;;;;;;;4.00;2.30;;;5.20;69.40;;;;;;2357349;53;20930;-66
2021/01/25 04:24:22;;;;;;;5.03;2.62;;;5.20;69.50;;;;;;2351208;53;21393;-66
2021/01/25 04:26:49;;;;;;;4.53;2.50;;;5.20;69.50;;;;;;2366240;54;21048;-66
2021/01/25 04:29:18;;;;;;;3.92;2.17;;;5.20;69.60;;;;;;2371108;54;20950;-66
2021/01/25 04:31:45;;;;;;;3.97;2.20;;;5.20;69.50;;;;;;2374688;54;20918;-66
2021/01/25 04:34:12;;;;;;;4.40;2.42;;;5.20;69.50;;;;;;2594133;52;21027;-66
2021/01/25 04:36:38;;;;;;;5.07;2.47;;;5.20;69.50;;;;;;2620556;52;20974;-66
2021/01/25 04:39:04;;;;;;;4.45;2.45;;;5.30;69.60;;;;;;2354117;53;20933;-66
2021/01/25 04:41:31;;;;;;;3.53;1.95;;;5.30;69.60;;;;;;2589266;52;20927;-66
2021/01/25 04:43:57;;;;;;;4.28;2.28;;;5.30;69.70;;;;;;2595184;52;21495;-66
2021/01/25 04:46:24;;;;;;;3.62;1.87;;;5.30;69.70;;;;;;2354729;53;21498;-66
2021/01/25 04:48:50;;;;;;;4.22;2.00;;;5.30;69.80;;;;;;2352862;53;21095;-66
2021/01/25 04:51:16;;;;;;;4.10;2.15;;;5.30;69.70;;;;;;2595762;52;20931;-66
2021/01/25 04:53:45;;;;;;;4.55;2.12;;;5.30;69.80;;;;;;2352490;54;22187;-66
2021/01/25 04:56:12;;;;;;;3.80;2.08;;;5.30;69.80;;;;;;2588912;52;21054;-66
2021/01/25 04:58:39;;;;;;;3.55;1.75;;;5.30;69.70;;;;;;2355462;53;21007;-66
2021/01/25 05:01:07;;;;;;;4.37;1.87;;;5.40;69.80;;;;;;2568518;52;21466;-66
2021/01/25 05:03:34;;;;;;;3.30;1.70;;;5.40;69.80;;;;;;2586722;52;20985;-66
2021/01/25 05:06:00;;;;;;;3.37;1.67;;;5.40;69.90;;;;;;2588169;52;20954;-66
2021/01/25 05:08:27;;;;;;;2.80;1.50;;;5.40;69.90;;;;;;2356445;53;21539;-66
2021/01/25 05:10:53;;;;;;;2.85;1.52;;;5.40;69.90;;;;;;2361023;53;20957;-66
2021/01/25 05:13:23;;;;;;;2.58;1.40;;;5.40;69.80;;;;;;2346514;53;20964;-66
2021/01/25 05:15:53;;;;;;;2.72;1.27;;;5.40;69.90;;;;;;2362933;53;20943;-66
2021/01/25 05:18:24;;;;;;;3.25;1.48;;;5.40;69.80;;;;;;2602998;52;21432;-66
2021/01/25 05:20:56;;;;;;;3.37;1.67;;;5.50;69.90;;;;;;2352883;54;20996;-66
2021/01/25 05:23:22;;;;;;;4.00;1.60;;;5.50;69.70;;;;;;2594704;52;21094;-66
2021/01/25 05:28:52;;;;;;;3.53;1.70;;;5.50;69.50;;;;;;2596416;52;20924;-66
2021/01/25 05:31:19;;;;;;;4.05;1.70;;;5.50;69.30;;;;;;2584580;52;21030;-66
2021/01/25 05:33:48;;;;;;;3.65;1.77;;;5.40;69.20;;;;;;2345050;53;20964;-66
2021/01/25 05:36:21;;;;;;;4.78;2.33;;;5.50;69.20;;;;;;2597363;52;21026;-66
2021/01/25 05:38:51;;;;;;;7.57;3.92;;;5.40;68.90;;;;;;2570800;53;21024;-66
2021/01/25 05:41:17;;;;;;;5.65;3.15;;;5.40;68.80;;;;;;2603789;52;21511;-66
2021/01/25 05:43:44;;;;;;;6.00;2.80;;;5.30;68.70;;;;;;2592460;52;20947;-66
2021/01/25 05:46:12;;;;;;;4.68;2.53;;;5.30;68.80;;;;;;2348352;54;20974;-66
2021/01/25 05:48:38;;;;;;;4.75;2.60;;;5.30;68.80;;;;;;2554826;52;21094;-66
2021/01/25 05:51:15;;;;;;;5.07;2.50;;;5.20;68.60;;;;;;2334928;54;20910;-66
2021/01/25 05:53:42;;;;;;;5.07;3.00;;;5.20;68.40;;;;;;2607220;52;20988;-66
2021/01/25 05:56:09;;;;;;;3.97;2.53;;;5.20;68.20;;;;;;2588689;52;21090;-66
2021/01/25 05:58:39;;;;;;;4.30;2.75;;;5.20;68.10;;;;;;2352252;54;21941;-66
2021/01/25 06:01:06;;;;;;;3.62;2.33;;;5.10;68.00;;;;;;2607490;52;20964;-66
2021/01/25 06:03:39;;;;;;;4.35;2.37;;;5.10;68.00;;;;;;2600120;52;21037;-67
2021/01/25 06:07:38;;;;;;;4.20;2.60;;;5.00;68.00;;;;;;2593380;52;20882;-67
2021/01/25 06:10:05;;;;;;;3.72;2.35;;;5.00;67.90;;;;;;2595410;52;20924;-67
2021/01/25 06:12:44;;;;;;;3.87;2.30;;;4.90;67.80;;;;;;2344241;53;20939;-67
2021/01/25 06:15:18;;;;;;;3.70;2.20;;;4.90;67.90;;;;;;2346862;53;21002;-67
2021/01/25 06:17:44;;;;;;;4.35;2.28;;;4.80;67.90;;;;;;2531407;53;21702;-67
2021/01/25 06:20:11;;;;;;;5.50;2.45;;;4.80;68.00;;;;;;2551707;53;21057;-67
2021/01/25 06:22:37;;;;;;;3.75;2.17;;;4.70;68.10;;;;;;2585732;52;20944;-67
2021/01/25 06:25:07;;;;;;;3.85;2.70;;;4.70;68.30;;;;;;2586810;52;21042;-68
2021/01/25 06:27:33;;;;;;;4.65;2.62;;;4.70;68.40;;;;;;2592229;52;20944;-68
2021/01/25 06:30:03;;;;;;;4.03;2.33;;;4.70;68.60;;;;;;2585259;52;20967;-68
2021/01/25 06:32:35;;;;;;;3.33;1.90;;;4.60;68.60;;;;;;2571746;52;20993;-67
2021/01/25 06:35:05;;;;;;;3.97;2.45;;;4.60;68.80;;;;;;2560362;53;21069;-68
2021/01/25 06:37:37;;;;;;;5.05;2.78;;;4.60;68.90;;;;;;2560146;53;21045;-67
2021/01/25 06:40:09;;;;;;;6.40;3.35;;;4.60;68.90;;;;;;2566845;52;1375099;-67
2021/01/25 06:42:38;;;;;;;4.12;2.20;;;4.60;69.10;;;;;;2343600;53;21015;-67
2021/01/25 06:45:06;;;;;;;3.85;2.30;;;4.60;69.20;;;;;;2554143;53;20990;-67
2021/01/25 06:47:34;;;;;;;4.50;2.22;;;4.60;69.20;;;;;;2334597;53;21438;-67
2021/01/25 06:50:02;;;;;;;4.18;1.85;;;4.60;69.40;;;;;;2569469;52;20999;-67
2021/01/25 06:52:32;;;;;;;4.05;1.98;;;4.60;69.50;;;;;;2318725;53;21011;-67
2021/01/25 06:55:05;;;;;;;3.08;1.77;;;4.60;69.60;;;;;;2324233;54;21005;-67
2021/01/25 06:57:35;;;;;;;4.68;2.40;;;4.60;69.70;;;;;;2315685;54;20953;-67
2021/01/25 07:00:20;;;;;;;5.07;2.53;;;4.60;69.80;;;;;;2332465;53;20975;-67
2021/01/25 07:02:57;;;;;;;6.30;2.70;;;4.60;69.80;;;;;;2547866;53;21034;-67
2021/01/25 07:05:25;;;;;;;4.20;2.50;;;4.60;69.90;;;;;;2333188;53;22048;-67
2021/01/25 07:07:52;;;;;;;4.22;2.42;;;4.50;69.90;;;;;;2356298;54;20931;-66
2021/01/25 07:10:20;;;;;;;4.50;2.72;;;4.60;70.00;;;;;;2347848;53;20929;-67
2021/01/25 07:12:46;;;;;;;6.75;3.28;;;4.60;70.10;;;;;;2585123;52;20961;-67
2021/01/25 07:15:13;;;;;;;5.28;3.12;;;4.40;69.80;;;;;;2344493;53;20942;-67
2021/01/25 07:17:39;;;;;;;6.68;3.17;;;4.60;70.10;;;;;;2584220;52;20966;-67
2021/01/25 07:20:07;;;;;;;4.47;2.95;;;4.60;70.00;;;;;;2572076;52;21068;-67
2021/01/25 07:22:36;;;;;;;5.78;3.10;;;4.60;70.00;;;;;;2583108;52;20987;-67
2021/01/25 07:25:03;;;;;;;4.93;2.85;;;4.60;70.10;;;;;;2575707;52;20995;-67
2021/01/25 07:27:36;;;;;;;4.90;2.95;;;4.60;70.10;;;;;;2578988;52;20974;-67
2021/01/25 07:30:04;;;;;;;4.18;2.25;;;4.60;70.00;;;;;;2590408;52;21780;-67
2021/01/25 07:32:30;;;;;;;4.45;2.50;;;4.60;70.20;;;;;;2592848;52;20923;-67
2021/01/25 07:34:57;;;;;;;4.07;2.10;;;4.60;70.30;;;;;;2589759;52;21477;-66
2021/01/25 07:37:23;;;;;;;3.92;2.10;;;4.60;70.40;;;;;;2595391;52;22122;-66
2021/01/25 07:39:50;;;;;;;4.07;2.20;;;4.60;70.50;;;;;;2599715;52;21639;-67
2021/01/25 07:42:17;;;;;;;3.83;2.08;;;4.60;70.70;;;;;;2597247;52;21817;-67
2021/01/25 07:44:44;;;;;;;3.30;1.60;;;4.70;70.80;;;;;;2353450;53;20950;-66
2021/01/25 07:47:10;;;;;;;3.97;1.85;;;4.70;70.90;;;;;;2358202;53;20994;-66
2021/01/25 07:49:36;;;;;;;3.42;1.98;;;4.70;71.00;;;;;;2581926;52;20996;-67
2021/01/25 07:52:03;;;;;;;4.93;1.80;;;4.70;71.20;;;;;;2600985;52;21897;-66
2021/01/25 07:54:30;;;;;;;3.17;1.73;;;4.80;71.30;;;;;;2596008;52;20939;-66
2021/01/25 07:56:59;;;;;;;3.33;1.70;;;4.80;71.30;;;;;;2589047;52;21067;-66
2021/01/25 07:59:33;;;;;;;4.65;1.58;;;4.80;71.30;;;;;;2587073;52;20935;-66
2021/01/25 08:02:02;;;;;;;3.92;1.77;;;4.80;71.40;;;;;;2354542;53;20923;-66
2021/01/25 08:04:39;;;;;;;3.87;1.70;;;4.90;71.50;;;;;;2349555;53;20991;-66
2021/01/25 08:07:05;;;;;;;4.15;2.10;;;4.90;71.50;;;;;;2576010;52;21046;-66
2021/01/25 08:09:37;;;;;;;3.30;1.65;;;4.90;71.50;;;;;;2594017;52;20959;-66
2021/01/25 08:12:03;;;;;;;3.40;1.90;;;5.00;71.70;;;;;;2568661;52;21129;-66
2021/01/25 08:14:46;;;;;;;4.87;2.12;;;5.00;71.70;;;;;;2588572;52;20970;-66
2021/01/25 08:17:23;;;;;;;5.35;2.90;;;5.10;71.80;;;;;;2587545;52;21384;-67
2021/01/25 08:20:09;;;;;;;4.65;2.12;;;5.10;71.70;;;;;;2594353;52;20955;-66
2021/01/25 08:22:42;;;;;;;4.05;2.10;;;5.10;72.40;;;;;;2616321;52;20942;-66
2021/01/25 08:25:13;;;;;;;4.68;2.35;;;5.10;71.60;;;;;;2581215;52;20902;-66
2021/01/25 08:27:39;;;;;;;5.03;2.37;;;5.20;71.80;;;;;;2345925;53;21425;-66
2021/01/25 08:30:18;;;;;;;3.87;2.10;;;5.20;71.80;;;;;;2589892;52;20935;-66
2021/01/25 08:32:51;;;;;;;3.50;1.90;;;5.20;71.90;;;;;;2347376;54;21014;-66
2021/01/25 08:37:12;;;;;;;3.87;1.80;;;5.30;72.00;;;;;;2619559;52;21002;-67
2021/01/25 08:39:41;;;;;;;3.40;1.80;;;5.30;71.30;;;;;;2355518;53;20943;-67
2021/01/25 08:42:21;;;;;;;7.53;2.95;;;5.40;71.90;;;;;;2356551;53;21007;-67
2021/01/25 08:44:50;;;;;;;25.58;9.85;;;5.40;71.80;;;;;;2356141;54;20956;-67
2021/01/25 08:47:25;;;;;;;24.20;9.23;;;5.50;72.00;;;;;;2368509;53;21034;-67
2021/01/25 08:49:54;;;;;;;22.48;9.55;;;5.50;72.00;;;;;;2565516;52;20996;-67
2021/01/25 08:52:41;;;;;;;20.52;8.82;;;5.50;72.00;;;;;;2306192;53;20951;-67
2021/01/25 09:01:55;;;;;;;8.38;3.97;;;5.50;71.70;;;;;;2582665;53;20973;-67
2021/01/25 09:04:22;;;;;;;4.32;1.45;;;5.70;70.90;;;;;;2342333;53;21113;-67
2021/01/25 09:06:52;;;;;;;2.53;1.08;;;5.70;71.40;;;;;;2559094;52;20909;-67
2021/01/25 09:09:19;;;;;;;2.08;0.98;;;5.70;71.50;;;;;;2580878;52;21536;-67
2021/01/25 09:11:45;;;;;;;2.78;0.90;;;5.70;71.60;;;;;;2569520;52;20964;-67
2021/01/25 09:14:12;;;;;;;2.92;1.00;;;5.80;71.80;;;;;;2563285;53;21064;-67
2021/01/25 09:16:40;;;;;;;2.78;1.02;;;5.80;72.60;;;;;;2338506;53;20983;-67
2021/01/25 09:19:06;;;;;;;3.53;0.90;;;5.80;72.00;;;;;;2589904;52;20944;-68
2021/01/25 09:21:34;;;;;;;2.80;1.50;;;5.80;71.90;;;;;;2556962;53;21486;-67
2021/01/25 09:24:00;;;;;;;3.12;1.65;;;5.90;72.80;;;;;;2575140;52;21055;-67
2021/01/25 09:26:27;;;;;;;3.33;1.50;;;5.90;72.00;;;;;;2592282;52;20935;-67
2021/01/25 09:28:53;;;;;;;4.65;2.10;;;6.00;72.10;;;;;;2615235;52;20977;-68
2021/01/25 09:31:22;;;;;;;6.37;2.75;;;6.00;72.00;;;;;;2588300;52;20927;-67
2021/01/25 09:33:48;;;;;;;7.40;3.25;;;6.00;72.60;;;;;;2366131;54;20934;-68
2021/01/25 09:36:15;;;;;;;7.07;3.12;;;6.10;71.80;;;;;;2349629;54;20942;-68
2021/01/25 09:38:41;;;;;;;4.47;2.08;;;6.10;71.70;;;;;;2618944;52;20949;-68
2021/01/25 09:41:12;;;;;;;4.95;2.08;;;6.10;71.50;;;;;;2360377;53;20935;-68
2021/01/25 09:43:39;;;;;;;3.42;1.48;;;6.10;71.40;;;;;;2592138;52;20967;-68
2021/01/25 09:46:06;;;;;;;5.85;1.60;;;6.10;71.20;;;;;;2593222;52;21062;-68
2021/01/25 09:48:35;;;;;;;4.18;1.80;;;6.20;71.30;;;;;;2605893;52;20982;-68
2021/01/25 09:51:01;;;;;;;3.40;1.30;;;6.20;71.10;;;;;;2335045;53;20974;-68
2021/01/25 09:53:27;;;;;;;2.45;1.10;;;6.20;71.00;;;;;;2584613;52;20997;-67
2021/01/25 09:55:57;;;;;;;3.25;1.10;;;6.30;71.10;;;;;;2593217;52;21013;-67
2021/01/25 09:58:23;;;;;;;5.10;1.12;;;6.20;70.90;;;;;;2599897;52;21003;-67
2021/01/25 10:00:50;;;;;;;3.47;1.17;;;6.20;70.90;;;;;;2605848;52;21589;-67
2021/01/25 10:03:17;;;;;;;4.03;1.00;;;6.20;70.80;;;;;;2582092;52;21027;-68
2021/01/25 10:05:43;;;;;;;2.40;0.98;;;6.20;70.60;;;;;;2363648;53;21502;-68
2021/01/25 10:08:10;;;;;;;3.72;1.02;;;6.20;70.70;;;;;;2592847;52;21020;-66
2021/01/25 10:10:36;;;;;;;2.30;1.02;;;6.20;70.70;;;;;;2595593;52;20963;-68
2021/01/25 10:13:03;;;;;;;1.90;0.82;;;6.20;70.70;;;;;;2594615;52;21034;-68
2021/01/25 10:15:29;;;;;;;2.78;0.80;;;6.20;70.70;;;;;;2603481;52;21438;-68
2021/01/25 10:17:56;;;;;;;2.92;1.17;;;6.20;70.70;;;;;;2354185;54;20948;-68
2021/01/25 10:20:23;;;;;;;3.45;1.10;;;6.30;70.80;;;;;;2587957;52;20979;-68
2021/01/25 10:22:49;;;;;;;3.08;1.35;;;6.20;70.70;;;;;;2595870;52;20952;-68
2021/01/25 10:25:19;;;;;;;1.65;0.80;;;6.20;70.80;;;;;;2348928;54;20995;-68
2021/01/25 10:27:45;;;;;;;4.07;1.08;;;6.30;71.10;;;;;;2592573;52;20955;-68
2021/01/25 10:30:12;;;;;;;3.35;1.05;;;6.20;71.00;;;;;;2592156;52;21390;-68
2021/01/25 10:32:39;;;;;;;5.50;1.65;;;6.20;71.10;;;;;;2576484;52;20929;-68
2021/01/25 10:35:06;;;;;;;4.05;1.50;;;6.20;71.10;;;;;;2558746;53;20987;-68
2021/01/25 10:37:33;;;;;;;5.65;1.37;;;6.20;71.30;;;;;;2586585;53;21479;-67
2021/01/25 10:39:59;;;;;;;3.75;1.30;;;6.30;71.60;;;;;;2583765;53;20968;-68
2021/01/25 10:42:28;;;;;;;2.92;1.30;;;6.30;71.70;;;;;;2342655;53;22397;-68
2021/01/25 10:44:57;;;;;;;5.87;1.40;;;6.30;71.70;;;;;;2346567;53;21018;-68
2021/01/25 10:47:24;;;;;;;3.03;1.20;;;6.40;71.80;;;;;;2564540;53;21783;-68
2021/01/25 10:49:52;;;;;;;3.45;1.58;;;6.40;71.90;;;;;;2587965;52;20946;-68
2021/01/25 10:52:18;;;;;;;3.53;1.37;;;6.50;72.00;;;;;;2345620;53;20982;-68
2021/01/25 10:54:45;;;;;;;3.00;1.25;;;6.50;72.10;;;;;;2582871;52;20956;-68
2021/01/25 10:57:11;;;;;;;2.83;1.20;;;6.50;72.20;;;;;;2611981;52;20918;-68
2021/01/25 10:59:38;;;;;;;3.97;1.17;;;6.60;72.30;;;;;;2580225;52;20996;-68
2021/01/25 11:02:04;;;;;;;3.30;1.30;;;6.60;72.20;;;;;;2549414;52;21003;-68
2021/01/25 11:04:31;;;;;;;4.72;1.50;;;6.60;72.20;;;;;;2308958;54;20935;-68
2021/01/25 11:06:59;;;;;;;4.93;1.40;;;6.70;72.20;;;;;;2542632;53;21001;-68
2021/01/25 11:09:26;;;;;;;4.57;1.80;;;6.80;72.50;;;;;;2545048;53;20939;-68
2021/01/25 11:11:52;;;;;;;3.70;1.40;;;6.80;72.20;;;;;;2567282;53;20989;-68
2021/01/25 11:14:20;;;;;;;3.30;1.30;;;6.80;72.20;;;;;;2553474;53;21523;-68
2021/01/25 11:16:48;;;;;;;3.65;1.40;;;6.90;72.20;;;;;;2581254;53;21672;-68
2021/01/25 11:19:17;;;;;;;4.53;1.58;;;6.90;72.00;;;;;;2583230;53;21934;-68
2021/01/25 11:21:44;;;;;;;4.62;1.83;;;6.90;71.80;;;;;;2582219;52;21559;-68
2021/01/25 11:24:10;;;;;;;3.70;1.50;;;7.00;71.80;;;;;;2337391;53;20945;-68
2021/01/25 11:26:39;;;;;;;4.28;1.62;;;7.00;71.60;;;;;;2571458;53;21853;-68
2021/01/25 11:29:06;;;;;;;4.37;2.03;;;7.00;71.50;;;;;;2592112;52;21738;-68
2021/01/25 11:31:32;;;;;;;3.90;1.52;;;7.00;71.30;;;;;;2331600;53;20960;-68
2021/01/25 11:34:00;;;;;;;3.92;1.67;;;7.00;71.20;;;;;;2580369;53;21002;-68
2021/01/25 11:36:26;;;;;;;3.40;1.58;;;7.00;70.90;;;;;;2575272;52;22008;-68
2021/01/25 11:38:52;;;;;;;4.47;1.70;;;7.00;71.40;;;;;;2596938;52;20922;-68
2021/01/25 11:41:19;;;;;;;4.93;1.58;;;6.90;70.30;;;;;;2591146;52;22059;-68
2021/01/25 11:43:48;;;;;;;3.47;1.50;;;6.90;70.40;;;;;;2354511;53;21542;-68
2021/01/25 11:46:14;;;;;;;3.50;1.40;;;6.90;70.50;;;;;;2577988;52;20991;-68
2021/01/25 11:48:42;;;;;;;4.57;1.52;;;6.90;70.20;;;;;;2359616;53;20966;-68
2021/01/25 11:51:08;;;;;;;3.95;1.67;;;6.90;70.00;;;;;;2599302;52;21169;-68
2021/01/25 11:53:35;;;;;;;3.20;1.55;;;6.80;69.70;;;;;;2596707;52;20906;-68
2021/01/25 11:56:05;;;;;;;2.87;1.27;;;6.80;69.80;;;;;;2592037;52;21011;-68
2021/01/25 11:58:31;;;;;;;4.82;1.40;;;6.70;69.80;;;;;;2588985;52;20934;-68
2021/01/25 12:00:58;;;;;;;2.30;1.10;;;6.70;70.00;;;;;;2356525;54;20921;-68
2021/01/25 12:03:24;;;;;;;2.20;1.00;;;6.70;70.20;;;;;;2620780;52;21002;-68
2021/01/25 12:05:50;;;;;;;3.58;1.30;;;6.70;70.30;;;;;;2584922;52;20901;-68
2021/01/25 12:08:19;;;;;;;1.90;0.80;;;6.70;70.30;;;;;;2592057;52;21045;-68
2021/01/25 12:10:45;;;;;;;1.98;0.95;;;6.60;70.30;;;;;;2595037;52;21029;-68
2021/01/25 12:13:12;;;;;;;2.80;1.10;;;6.60;70.30;;;;;;2604917;52;21005;-68
2021/01/25 12:15:38;;;;;;;2.40;1.02;;;6.60;70.30;;;;;;2604259;52;21518;-68
2021/01/25 12:18:05;;;;;;;2.40;1.20;;;6.60;70.20;;;;;;2588986;52;21984;-68
2021/01/25 12:20:32;;;;;;;3.40;1.20;;;6.60;70.20;;;;;;2592015;52;20914;-68
2021/01/25 12:22:58;;;;;;;2.62;1.20;;;6.60;70.00;;;;;;2614000;52;21037;-67
2021/01/25 12:25:25;;;;;;;3.10;1.35;;;6.60;69.90;;;;;;2349323;53;21517;-68
2021/01/25 12:27:53;;;;;;;3.67;1.00;;;6.60;70.50;;;;;;2597290;52;20989;-68
2021/01/25 12:30:19;;;;;;;3.58;1.20;;;6.50;69.60;;;;;;2351478;53;20982;-68
2021/01/25 12:32:46;;;;;;;4.15;0.93;;;6.50;69.60;;;;;;2359845;53;20967;-68
2021/01/25 12:35:13;;;;;;;3.70;1.25;;;6.50;69.60;;;;;;2595387;52;21001;-68
2021/01/25 12:37:40;;;;;;;2.65;1.05;;;6.50;69.50;;;;;;2591733;52;21021;-68
2021/01/25 12:40:09;;;;;;;3.20;1.10;;;6.40;69.50;;;;;;2351140;53;20970;-68
2021/01/25 12:42:35;;;;;;;2.55;1.00;;;6.40;69.70;;;;;;2583353;52;20998;-68
2021/01/25 12:45:02;;;;;;;2.37;1.20;;;6.40;69.70;;;;;;2350977;53;20911;-68
2021/01/25 12:47:29;;;;;;;4.43;1.40;;;6.40;69.80;;;;;;2591315;52;21041;-68
2021/01/25 12:49:56;;;;;;;4.32;2.05;;;6.40;70.10;;;;;;2339101;53;21026;-68
2021/01/25 12:52:22;;;;;;;4.53;1.65;;;6.30;70.10;;;;;;2562743;53;21965;-68
2021/01/25 12:54:49;;;;;;;3.97;1.67;;;6.30;70.30;;;;;;2582749;52;20978;-68
2021/01/25 12:57:19;;;;;;;3.92;1.55;;;6.30;70.30;;;;;;2593119;52;21900;-68
2021/01/25 12:59:47;;;;;;;5.70;2.10;;;6.40;70.50;;;;;;2364734;53;20966;-68
2021/01/25 13:02:14;;;;;;;2.95;1.50;;;6.40;70.50;;;;;;2620178;52;20950;-68
2021/01/25 13:04:40;;;;;;;2.75;1.27;;;6.40;70.50;;;;;;2612571;52;20960;-68
2021/01/25 13:07:10;;;;;;;3.60;1.80;;;6.40;70.40;;;;;;2595004;52;21011;-68
2021/01/25 13:09:37;;;;;;;3.03;1.23;;;6.40;70.20;;;;;;2613099;52;20968;-68
2021/01/25 13:12:04;;;;;;;2.53;1.20;;;6.30;70.30;;;;;;2569306;52;20885;-68
2021/01/25 13:14:30;;;;;;;4.97;1.52;;;6.40;70.60;;;;;;2360090;53;20984;-68
2021/01/25 13:16:56;;;;;;;2.67;1.20;;;6.40;70.60;;;;;;2607942;52;20954;-69